Time;durP1;ratioP1;P1;durP2;ratioP2;P2;SDS_P1;SDS_P2;PMS_P1;PMS_P2;Temp;Humidity;BMP_temperature;BMP_pressure;BME280_temperature;BME280_humidity;BME280_pressure;Samples;Min_cycle;Max_cycle;Signal;HPM_P1;HPM_P2
2020/12/10 00:02:33;;;;;;;30.98;19.05;;;;;;;3.11;100.00;100680.69;5048555;28;20033;-68
2020/12/10 00:05:18;;;;;;;34.92;21.67;;;;;;;3.01;100.00;100677.13;5049822;28;20141;-67
2020/12/10 00:08:04;;;;;;;26.38;17.88;;;;;;;3.22;100.00;100674.78;5040054;28;20041;-66
2020/12/10 00:10:49;;;;;;;44.03;25.17;;;;;;;2.98;100.00;100669.31;5037194;28;20040;-66
2020/12/10 00:13:35;;;;;;;45.40;19.33;;;;;;;2.86;100.00;100658.81;5036939;28;20124;-67
2020/12/10 00:16:20;;;;;;;30.10;19.45;;;;;;;3.22;100.00;100659.25;5021489;28;20041;-67
2020/12/10 00:19:05;;;;;;;54.05;31.50;;;;;;;3.20;100.00;100660.09;5034966;28;20377;-67
2020/12/10 00:21:54;;;;;;;32.15;19.42;;;;;;;3.31;100.00;100666.25;5019753;28;20086;-67
2020/12/10 00:24:40;;;;;;;31.15;19.80;;;;;;;3.44;100.00;100671.59;5033648;28;20480;-67
2020/12/10 00:27:26;;;;;;;40.22;19.13;;;;;;;3.21;100.00;100665.28;5033336;28;20071;-66
2020/12/10 00:30:12;;;;;;;29.92;19.55;;;;;;;3.26;100.00;100667.94;5019203;28;20360;-68
2020/12/10 00:32:57;;;;;;;38.38;19.98;;;;;;;3.18;100.00;100662.66;5019800;28;20041;-68
2020/12/10 00:35:43;;;;;;;44.75;21.33;;;;;;;3.41;100.00;100653.44;5033029;28;20049;-67
2020/12/10 00:38:28;;;;;;;39.80;20.20;;;;;;;3.25;100.00;100654.13;5033244;28;20437;-67
2020/12/10 00:41:14;;;;;;;79.43;21.73;;;;;;;3.11;100.00;100645.34;5032523;28;20037;-67
2020/12/10 00:44:00;;;;;;;33.78;20.60;;;;;;;3.22;100.00;100641.13;5033321;28;20055;-67
2020/12/10 00:46:45;;;;;;;31.27;20.08;;;;;;;3.46;100.00;100640.53;5032700;28;20446;-67
2020/12/10 00:49:30;;;;;;;31.60;20.50;;;;;;;3.50;100.00;100631.94;5033047;28;20389;-68
2020/12/10 00:52:16;;;;;;;33.30;19.77;;;;;;;3.36;100.00;100634.41;5032839;28;20041;-67
2020/12/10 00:55:02;;;;;;;61.75;36.95;;;;;;;3.11;100.00;100636.72;5018966;28;20457;-66
2020/12/10 00:57:49;;;;;;;32.22;19.55;;;;;;;3.52;100.00;100630.22;5036760;28;20124;-67
2020/12/10 01:00:35;;;;;;;49.50;20.73;;;;;;;3.28;100.00;100641.22;5032492;28;20088;-67
2020/12/10 01:03:20;;;;;;;31.50;19.83;;;;;;;3.53;100.00;100631.94;5032843;28;20041;-67
2020/12/10 01:06:11;;;;;;;34.10;19.85;;;;;;;3.62;100.00;100625.13;5032746;28;20115;-67
2020/12/10 01:08:56;;;;;;;74.30;23.65;;;;;;;3.34;100.00;100627.47;5032756;28;20029;-67
2020/12/10 01:11:42;;;;;;;28.15;18.45;;;;;;;3.63;100.00;100616.53;5018364;28;20041;-68
2020/12/10 01:14:27;;;;;;;39.58;19.60;;;;;;;3.45;100.00;100615.47;5018757;28;20032;-68
2020/12/10 01:17:13;;;;;;;41.17;19.48;;;;;;;3.51;100.00;100600.88;5046159;28;20037;-68
2020/12/10 01:19:58;;;;;;;34.40;19.38;;;;;;;3.64;100.00;100607.91;5032799;28;20438;-67
2020/12/10 01:22:44;;;;;;;31.95;18.65;;;;;;;3.30;100.00;100595.47;5032816;28;20119;-67
2020/12/10 01:25:29;;;;;;;33.42;19.13;;;;;;;3.22;100.00;100583.34;5031808;28;20476;-67
2020/12/10 01:28:15;;;;;;;43.35;21.35;;;;;;;3.28;100.00;100575.63;5032300;28;20041;-66
2020/12/10 01:31:00;;;;;;;49.80;20.33;;;;;;;3.67;100.00;100574.25;5031645;28;20065;-67
2020/12/10 01:33:45;;;;;;;46.40;20.73;;;;;;;3.37;100.00;100565.34;5032559;28;20327;-67
2020/12/10 01:36:32;;;;;;;32.67;18.05;;;;;;;3.58;100.00;100550.84;5032089;28;20065;-67
2020/12/10 01:39:17;;;;;;;41.42;20.42;;;;;;;3.23;100.00;100544.53;5032176;28;20040;-67
2020/12/10 01:42:02;;;;;;;43.30;21.27;;;;;;;3.82;100.00;100539.81;5032100;28;20094;-67
2020/12/10 01:44:48;;;;;;;33.72;18.67;;;;;;;3.76;100.00;100530.28;5032110;28;20037;-67
2020/12/10 01:47:34;;;;;;;88.43;19.08;;;;;;;3.39;100.00;100527.41;5032269;28;20124;-67
2020/12/10 01:50:19;;;;;;;48.83;23.42;;;;;;;3.73;100.00;100529.38;5032074;28;20037;-67
2020/12/10 01:53:04;;;;;;;36.13;19.45;;;;;;;3.77;100.00;100513.00;5033372;28;20029;-67
2020/12/10 01:55:50;;;;;;;35.15;19.38;;;;;;;4.16;100.00;100497.66;5035728;28;20037;-67
2020/12/10 01:58:35;;;;;;;38.28;20.15;;;;;;;4.03;100.00;100495.88;5016332;28;20355;-67
2020/12/10 02:01:21;;;;;;;47.17;19.00;;;;;;;3.79;100.00;100493.16;5015847;28;20026;-67
2020/12/10 02:04:25;;;;;;;98.32;18.85;;;;;;;3.48;100.00;100478.25;5016308;28;20096;-67
2020/12/10 02:07:11;;;;;;;43.65;19.20;;;;;;;3.58;100.00;100486.09;5016046;28;20355;-67
2020/12/10 02:09:56;;;;;;;43.17;18.50;;;;;;;3.53;100.00;100492.97;5015958;28;20044;-67
2020/12/10 02:12:42;;;;;;;85.53;21.98;;;;;;;3.65;100.00;100481.81;5002435;28;20042;-67
2020/12/10 02:15:27;;;;;;;52.35;19.17;;;;;;;3.65;100.00;100485.28;5015655;28;20044;-67
2020/12/10 02:18:13;;;;;;;60.88;20.75;;;;;;;3.82;100.00;100475.03;5002394;28;20042;-66
2020/12/10 02:20:58;;;;;;;64.60;17.67;;;;;;;3.60;100.00;100480.94;5015272;28;20469;-67
2020/12/10 02:23:44;;;;;;;58.75;19.67;;;;;;;3.73;100.00;100486.22;5016083;28;20180;-68
2020/12/10 02:26:29;;;;;;;89.75;20.95;;;;;;;3.54;100.00;100478.31;5015384;28;20038;-67
2020/12/10 02:29:17;;;;;;;67.15;20.50;;;;;;;3.66;100.00;100475.81;5015900;28;20452;-67
2020/12/10 02:32:03;;;;;;;61.05;18.48;;;;;;;3.68;100.00;100474.97;5015050;28;20109;-66
2020/12/10 02:34:48;;;;;;;30.52;18.27;;;;;;;3.71;100.00;100472.41;5002132;28;20092;-67
2020/12/10 02:37:34;;;;;;;49.08;18.23;;;;;;;3.71;100.00;100466.34;5015748;28;20511;-68
2020/12/10 02:40:19;;;;;;;63.15;21.80;;;;;;;3.58;100.00;100456.75;4988321;28;20034;-67
2020/12/10 02:43:05;;;;;;;32.25;17.02;;;;;;;3.45;100.00;100450.63;5015624;28;20030;-67
2020/12/10 02:45:50;;;;;;;45.50;23.08;;;;;;;4.05;100.00;100443.19;5014678;28;20470;-67
2020/12/10 02:48:36;;;;;;;31.75;18.65;;;;;;;4.27;100.00;100445.00;5015466;28;20120;-67
2020/12/10 02:51:21;;;;;;;33.67;19.20;;;;;;;4.38;100.00;100445.06;5014854;28;20370;-68
2020/12/10 02:54:07;;;;;;;32.92;17.38;;;;;;;4.07;100.00;100454.41;5015472;28;20026;-68
2020/12/10 02:56:52;;;;;;;39.03;19.40;;;;;;;4.56;100.00;100458.06;5023213;28;20037;-67
2020/12/10 02:59:37;;;;;;;35.13;20.05;;;;;;;4.70;100.00;100464.13;5035267;28;20390;-68
2020/12/10 03:02:23;;;;;;;32.00;18.23;;;;;;;4.89;100.00;100461.56;5035029;28;20033;-67
2020/12/10 03:05:09;;;;;;;37.85;21.33;;;;;;;4.80;100.00;100471.94;5064656;28;20021;-66
2020/12/10 03:07:54;;;;;;;45.53;23.15;;;;;;;4.97;100.00;100474.56;5034949;28;20061;-67
2020/12/10 03:10:39;;;;;;;33.08;19.85;;;;;;;5.18;100.00;100477.16;5036876;28;20044;-67
2020/12/10 03:13:25;;;;;;;32.30;18.73;;;;;;;5.30;100.00;100464.19;5042162;28;20048;-67
2020/12/10 03:16:11;;;;;;;38.97;22.05;;;;;;;5.35;100.00;100470.25;5025210;28;20048;-67
2020/12/10 03:18:56;;;;;;;40.65;22.33;;;;;;;5.50;100.00;100470.22;5035173;28;20037;-67
2020/12/10 03:21:41;;;;;;;41.28;21.85;;;;;;;5.39;100.00;100482.38;5034363;28;20171;-68
2020/12/10 03:24:27;;;;;;;34.65;21.00;;;;;;;5.26;100.00;100491.00;5035099;28;20044;-68
2020/12/10 03:27:12;;;;;;;38.22;20.15;;;;;;;5.50;100.00;100497.94;5034091;28;20453;-68
2020/12/10 03:29:58;;;;;;;32.97;20.63;;;;;;;5.39;100.00;100488.41;5034342;28;20064;-67
2020/12/10 03:32:43;;;;;;;34.22;19.48;;;;;;;4.99;100.00;100481.47;5033899;28;20473;-67
2020/12/10 03:35:29;;;;;;;40.90;23.15;;;;;;;5.40;100.00;100492.75;5020562;28;20048;-68
2020/12/10 03:38:14;;;;;;;44.03;25.23;;;;;;;5.56;100.00;100491.00;5020660;28;20037;-67
2020/12/10 03:40:59;;;;;;;76.78;36.67;;;;;;;5.18;100.00;100505.72;5033952;28;20029;-68
2020/12/10 03:43:45;;;;;;;51.10;28.00;;;;;;;5.13;100.00;100507.47;5034282;28;20154;-67
2020/12/10 03:46:30;;;;;;;43.03;24.85;;;;;;;4.51;100.00;100517.69;5033913;28;20182;-67
2020/12/10 03:49:16;;;;;;;50.40;25.10;;;;;;;4.63;100.00;100528.09;5034065;28;20134;-66
2020/12/10 03:52:01;;;;;;;65.90;25.92;;;;;;;4.46;100.00;100542.75;5033491;28;20099;-66
2020/12/10 03:54:47;;;;;;;61.88;24.73;;;;;;;4.30;100.00;100546.13;5034051;28;20098;-66
2020/12/10 03:57:32;;;;;;;104.45;27.10;;;;;;;3.99;100.00;100543.38;5005953;28;20073;-67
2020/12/10 04:00:18;;;;;;;79.00;23.10;;;;;;;4.24;100.00;100556.50;4999986;28;20104;-67
2020/12/10 04:03:04;;;;;;;59.90;24.27;;;;;;;3.74;100.00;100555.28;5013887;28;20104;-67
2020/12/10 04:05:49;;;;;;;67.15;25.52;;;;;;;3.98;100.00;100546.84;5013878;28;20541;-66
2020/12/10 04:08:35;;;;;;;95.90;27.45;;;;;;;3.84;100.00;100543.28;5013764;28;20033;-67
2020/12/10 04:11:21;;;;;;;111.15;30.13;;;;;;;3.67;100.00;100545.75;5013538;28;20125;-66
2020/12/10 04:14:06;;;;;;;82.28;28.10;;;;;;;3.66;100.00;100543.16;4999920;28;20053;-66
2020/12/10 04:16:52;;;;;;;65.57;26.95;;;;;;;3.59;100.00;100542.25;5012808;28;20132;-66
2020/12/10 04:19:37;;;;;;;81.53;29.27;;;;;;;3.87;100.00;100538.13;5013780;28;20398;-66
2020/12/10 04:22:23;;;;;;;61.47;26.45;;;;;;;3.60;100.00;100538.78;5013401;28;20365;-67
2020/12/10 04:25:08;;;;;;;63.47;27.77;;;;;;;3.45;100.00;100532.59;5013436;28;20128;-66
2020/12/10 04:27:53;;;;;;;53.25;25.45;;;;;;;3.46;100.00;100535.22;5013255;28;20125;-68
2020/12/10 04:30:39;;;;;;;68.32;28.17;;;;;;;3.95;100.00;100531.25;5012746;28;20042;-68
2020/12/10 04:33:24;;;;;;;59.20;26.30;;;;;;;4.20;100.00;100520.16;5013476;28;20034;-68
2020/12/10 04:36:10;;;;;;;76.38;30.05;;;;;;;4.13;100.00;100514.06;5013402;28;20052;-68
2020/12/10 04:38:55;;;;;;;85.55;31.08;;;;;;;3.80;100.00;100520.78;5013264;28;20037;-68
2020/12/10 04:41:42;;;;;;;96.70;33.22;;;;;;;3.87;100.00;100528.59;5013135;28;20030;-68
2020/12/10 04:44:27;;;;;;;58.55;26.98;;;;;;;4.04;100.00;100536.47;4999327;28;20037;-68
2020/12/10 04:47:13;;;;;;;65.90;29.27;;;;;;;3.85;100.00;100524.25;4999430;28;20076;-68
2020/12/10 04:50:04;;;;;;;74.60;29.83;;;;;;;4.15;100.00;100530.50;5013003;28;20076;-68
2020/12/10 04:52:51;;;;;;;95.30;30.60;;;;;;;4.08;100.00;100539.13;5013138;28;20456;-68
2020/12/10 04:55:37;;;;;;;64.63;30.05;;;;;;;3.48;100.00;100535.22;4999129;28;20037;-67
2020/12/10 04:58:23;;;;;;;85.82;32.40;;;;;;;3.79;100.00;100535.50;5018936;28;20033;-67
2020/12/10 05:01:08;;;;;;;111.68;43.22;;;;;;;3.71;100.00;100531.97;5032554;28;20029;-67
2020/12/10 05:03:56;;;;;;;84.00;33.38;;;;;;;3.99;100.00;100545.97;5032574;28;20037;-67
2020/12/10 05:06:49;;;;;;;100.72;36.33;;;;;;;3.62;100.00;100531.88;5032587;28;20033;-67
2020/12/10 05:09:35;;;;;;;87.65;36.47;;;;;;;3.98;100.00;100526.09;5032168;28;20048;-67
2020/12/10 05:12:20;;;;;;;68.50;31.83;;;;;;;3.94;100.00;100522.59;5032169;28;20091;-67
2020/12/10 05:15:06;;;;;;;83.35;35.03;;;;;;;3.61;100.00;100530.16;5031616;28;20036;-68
2020/12/10 05:17:51;;;;;;;62.78;30.05;;;;;;;3.95;100.00;100526.91;5032073;28;20043;-67
2020/12/10 05:20:44;;;;;;;72.10;31.52;;;;;;;4.02;100.00;100530.44;5032022;28;20049;-66
2020/12/10 05:23:32;;;;;;;57.13;27.70;;;;;;;4.17;100.00;100518.41;5032334;28;20461;-67
2020/12/10 05:26:18;;;;;;;59.03;28.23;;;;;;;4.73;100.00;100526.41;5032222;28;20045;-67
2020/12/10 05:29:03;;;;;;;62.38;30.88;;;;;;;4.73;100.00;100521.22;5031625;28;20022;-67
2020/12/10 05:31:48;;;;;;;61.58;31.10;;;;;;;4.87;100.00;100527.34;5031305;28;20053;-67
2020/12/10 05:34:34;;;;;;;53.83;28.15;;;;;;;4.95;100.00;100525.63;5032189;28;20461;-65
2020/12/10 05:37:30;;;;;;;57.53;29.00;;;;;;;4.45;100.00;100532.38;5018580;28;20457;-65
2020/12/10 05:40:16;;;;;;;64.32;31.80;;;;;;;4.76;100.00;100526.44;5031842;28;20534;-65
2020/12/10 05:43:02;;;;;;;62.03;31.65;;;;;;;5.12;100.00;100526.50;5031271;28;20044;-66
2020/12/10 05:45:52;;;;;;;62.80;32.97;;;;;;;4.50;100.00;100539.31;5030868;28;20036;-65
2020/12/10 05:48:37;;;;;;;61.72;32.20;;;;;;;4.35;100.00;100551.34;5045611;28;20038;-66
2020/12/10 05:51:23;;;;;;;71.18;36.40;;;;;;;4.66;100.00;100551.47;5031306;28;20071;-65
2020/12/10 05:54:10;;;;;;;69.25;35.42;;;;;;;4.55;100.00;100558.34;5031774;28;20052;-66
2020/12/10 05:56:56;;;;;;;61.25;29.65;;;;;;;4.43;100.00;100565.22;5022471;28;20119;-67
2020/12/10 05:59:43;;;;;;;68.20;31.48;;;;;;;4.03;100.00;100563.28;5011702;28;20034;-66
2020/12/10 06:02:30;;;;;;;64.20;31.75;;;;;;;3.58;100.00;100581.09;5011835;28;20041;-66
2020/12/10 06:05:17;;;;;;;74.38;33.10;;;;;;;4.32;100.00;100596.28;5011831;28;20041;-65
2020/12/10 06:08:07;;;;;;;63.58;29.92;;;;;;;3.88;100.00;100589.06;5011899;28;20449;-65
2020/12/10 06:10:53;;;;;;;92.90;35.00;;;;;;;3.36;100.00;100586.91;5011831;28;20048;-64
2020/12/10 06:13:38;;;;;;;96.95;40.65;;;;;;;3.72;100.00;100595.00;4998570;28;20072;-65
2020/12/10 06:16:24;;;;;;;74.95;35.10;;;;;;;3.94;100.00;100589.13;5011665;28;20033;-64
2020/12/10 06:19:10;;;;;;;68.72;32.13;;;;;;;4.63;100.00;100592.97;4999337;28;20496;-64
2020/12/10 06:21:56;;;;;;;67.03;32.15;;;;;;;4.35;100.00;100596.28;5011995;28;20061;-66
2020/12/10 06:24:41;;;;;;;57.97;28.50;;;;;;;3.92;100.00;100596.91;4998425;28;20050;-64
2020/12/10 06:27:33;;;;;;;129.55;35.25;;;;;;;4.21;100.00;100610.03;4998068;28;20342;-64
2020/12/10 06:30:20;;;;;;;58.15;22.98;;;;;;;4.13;100.00;100602.22;5011341;28;20087;-65
2020/12/10 06:33:05;;;;;;;59.13;23.02;;;;;;;3.84;100.00;100601.16;5011806;28;20045;-65
2020/12/10 06:35:51;;;;;;;51.35;20.65;;;;;;;3.99;100.00;100619.38;5011592;28;20400;-65
2020/12/10 06:38:45;;;;;;;64.93;19.48;;;;;;;3.81;100.00;100621.84;5011701;28;20030;-65
2020/12/10 06:41:31;;;;;;;44.20;18.25;;;;;;;4.14;100.00;100634.22;5015141;28;20044;-66
2020/12/10 06:44:31;;;;;;;43.28;18.40;;;;;;;3.62;100.00;100637.25;5015284;28;20034;-65
2020/12/10 06:47:18;;;;;;;36.50;18.20;;;;;;;3.71;100.00;100634.72;5014832;28;20022;-65
2020/12/10 06:50:28;;;;;;;99.07;22.40;;;;;;;3.66;100.00;100641.59;5014835;28;20030;-66
2020/12/10 06:53:21;;;;;;;86.07;22.15;;;;;;;3.69;100.00;100620.88;5001626;28;20131;-65
2020/12/10 06:56:17;;;;;;;127.72;22.92;;;;;;;3.58;100.00;100625.97;5016918;28;20625;-65
2020/12/10 06:59:04;;;;;;;60.30;20.08;;;;;;;3.75;100.00;100652.91;5020596;28;20029;-64
2020/12/10 07:01:49;;;;;;;100.32;23.40;;;;;;;3.60;100.00;100650.16;5034266;28;20044;-66
2020/12/10 07:04:45;;;;;;;79.70;23.40;;;;;;;3.72;100.00;100658.06;5034618;28;20040;-66
2020/12/10 07:07:30;;;;;;;58.38;22.33;;;;;;;3.55;100.00;100650.97;5034604;28;20045;-66
2020/12/10 07:10:16;;;;;;;77.90;23.42;;;;;;;4.00;100.00;100653.97;5034273;28;20654;-66
2020/12/10 07:13:01;;;;;;;51.92;21.67;;;;;;;3.71;100.00;100640.78;5034264;28;20040;-65
2020/12/10 07:15:48;;;;;;;100.45;24.67;;;;;;;3.88;100.00;100657.34;5034055;28;20098;-65
2020/12/10 07:18:34;;;;;;;73.53;22.85;;;;;;;3.89;100.00;100648.69;5034252;28;20109;-65
2020/12/10 07:21:22;;;;;;;119.45;27.67;;;;;;;3.86;100.00;100656.44;5034087;28;20037;-66
2020/12/10 07:24:07;;;;;;;69.45;21.10;;;;;;;3.83;100.00;100647.78;5034195;28;20134;-65
2020/12/10 07:26:53;;;;;;;84.60;24.55;;;;;;;4.09;100.00;100647.13;5033954;28;20071;-66
2020/12/10 07:29:38;;;;;;;64.75;23.30;;;;;;;3.67;100.00;100643.31;5033703;28;20029;-65
2020/12/10 07:32:24;;;;;;;94.43;25.40;;;;;;;3.64;100.00;100638.97;5033357;28;20102;-66
2020/12/10 07:35:10;;;;;;;81.18;25.55;;;;;;;4.04;100.00;100641.03;5019718;28;20484;-67
2020/12/10 07:37:56;;;;;;;66.30;24.80;;;;;;;4.07;100.00;100637.59;5020021;28;20497;-66
2020/12/10 07:40:42;;;;;;;84.93;26.35;;;;;;;4.26;100.00;100636.88;5033559;28;20040;-65
2020/12/10 07:43:28;;;;;;;63.97;25.48;;;;;;;4.44;100.00;100627.47;5020115;28;20091;-65
2020/12/10 07:46:13;;;;;;;49.75;22.83;;;;;;;4.39;100.00;100626.56;5019754;28;20052;-66
2020/12/10 07:48:59;;;;;;;80.25;24.38;;;;;;;4.42;100.00;100626.59;5033608;28;20048;-66
2020/12/10 07:51:44;;;;;;;38.05;19.60;;;;;;;4.52;100.00;100627.50;5018403;28;20029;-65
2020/12/10 07:54:45;;;;;;;68.80;25.00;;;;;;;3.87;100.00;100626.22;5033676;28;20128;-65
2020/12/10 07:57:42;;;;;;;45.85;21.15;;;;;;;4.16;100.00;100619.50;5019911;28;20037;-66
2020/12/10 08:00:29;;;;;;;54.13;23.33;;;;;;;4.66;100.00;100626.72;5013559;28;20034;-66
2020/12/10 08:03:37;;;;;;;48.28;20.92;;;;;;;4.54;100.00;100633.56;5000122;28;20116;-65
2020/12/10 08:06:30;;;;;;;40.42;19.42;;;;;;;4.25;100.00;100645.50;4999721;28;20061;-67
2020/12/10 08:09:17;;;;;;;40.25;20.05;;;;;;;4.35;100.00;100639.53;5000195;28;20040;-66
2020/12/10 08:12:02;;;;;;;37.90;18.92;;;;;;;4.72;100.00;100647.53;4999689;28;20033;-65
2020/12/10 08:14:51;;;;;;;39.75;18.85;;;;;;;4.59;100.00;100650.88;5013072;28;20039;-65
2020/12/10 08:17:36;;;;;;;30.95;15.65;;;;;;;4.45;100.00;100664.63;4999904;28;20056;-66
2020/12/10 08:20:35;;;;;;;35.22;16.98;;;;;;;4.29;100.00;100663.69;4999552;28;20037;-65
2020/12/10 08:23:21;;;;;;;34.00;16.85;;;;;;;4.74;100.00;100663.06;5013381;28;20454;-65
2020/12/10 08:26:14;;;;;;;29.20;16.02;;;;;;;4.65;100.00;100661.31;4999745;28;20041;-67
2020/12/10 08:28:59;;;;;;;31.08;15.57;;;;;;;4.33;100.00;100673.22;4999502;28;20041;-66
2020/12/10 08:31:45;;;;;;;29.00;16.00;;;;;;;4.16;100.00;100669.66;5012632;28;20041;-66
2020/12/10 08:34:31;;;;;;;30.25;16.25;;;;;;;4.23;100.00;100668.81;5012914;28;20029;-65
2020/12/10 08:37:16;;;;;;;34.78;19.33;;;;;;;4.62;100.00;100655.22;4999067;28;20046;-65
2020/12/10 08:40:04;;;;;;;37.05;19.50;;;;;;;4.94;100.00;100659.72;5013194;28;20072;-66
2020/12/10 08:42:49;;;;;;;38.60;21.60;;;;;;;4.36;100.00;100656.81;5013261;28;20357;-66
2020/12/10 08:45:43;;;;;;;43.47;22.20;;;;;;;4.76;100.00;100651.88;5013078;28;20183;-65
2020/12/10 08:48:32;;;;;;;33.00;18.50;;;;;;;4.71;100.00;100644.91;5013061;28;20343;-68
2020/12/10 08:51:18;;;;;;;36.65;19.48;;;;;;;4.70;100.00;100638.84;5012561;28;20038;-67
2020/12/10 08:54:04;;;;;;;33.08;18.67;;;;;;;4.79;100.00;100651.84;5013154;28;20389;-66
2020/12/10 08:57:05;;;;;;;32.92;18.35;;;;;;;4.85;100.00;100649.31;5021079;28;20104;-68
2020/12/10 08:59:50;;;;;;;31.10;18.00;;;;;;;4.85;100.00;100656.22;5033209;28;20033;-67
2020/12/10 09:02:36;;;;;;;36.22;18.60;;;;;;;4.91;100.00;100659.69;5033337;28;20037;-66
2020/12/10 09:05:21;;;;;;;31.40;17.95;;;;;;;4.95;100.00;100647.63;5031980;28;20048;-68
2020/12/10 09:08:15;;;;;;;33.75;18.23;;;;;;;5.03;100.00;100645.91;5033970;28;20037;-69
2020/12/10 09:11:01;;;;;;;39.88;20.00;;;;;;;4.70;100.00;100638.84;5032382;28;20029;-65
2020/12/10 09:13:46;;;;;;;40.25;19.02;;;;;;;4.36;100.00;100636.06;5018578;28;20048;-67
2020/12/10 09:16:31;;;;;;;31.85;17.90;;;;;;;5.08;100.00;100637.28;5032056;28;20116;-65
2020/12/10 09:19:17;;;;;;;34.75;19.00;;;;;;;4.87;100.00;100636.34;5032812;28;20091;-65
2020/12/10 09:22:03;;;;;;;34.00;18.30;;;;;;;4.97;100.00;100627.72;5032054;28;20025;-65
2020/12/10 09:24:48;;;;;;;37.78;19.63;;;;;;;4.81;100.00;100624.19;5032230;28;20094;-64
2020/12/10 09:27:34;;;;;;;31.77;17.77;;;;;;;5.20;100.00;100621.72;5032326;28;20083;-64
2020/12/10 09:30:20;;;;;;;29.98;17.85;;;;;;;5.46;100.00;100610.53;5031863;28;20042;-66
2020/12/10 09:33:05;;;;;;;31.00;17.85;;;;;;;5.50;100.00;100607.91;5032123;28;20091;-65
2020/12/10 09:35:50;;;;;;;33.30;18.10;;;;;;;4.89;100.00;100604.34;5031638;28;20029;-65
2020/12/10 09:38:39;;;;;;;34.25;18.63;;;;;;;4.90;100.00;100603.47;5032040;28;20373;-65
2020/12/10 09:41:28;;;;;;;39.58;19.52;;;;;;;5.17;100.00;100606.16;5031888;28;20346;-66
2020/12/10 09:44:13;;;;;;;32.88;17.63;;;;;;;4.69;100.00;100599.91;5031458;28;20470;-67
2020/12/10 09:46:59;;;;;;;31.80;17.70;;;;;;;5.28;100.00;100595.78;5031808;28;20071;-68
2020/12/10 09:49:44;;;;;;;35.00;18.92;;;;;;;5.20;100.00;100595.75;5031931;28;20052;-67
2020/12/10 09:52:32;;;;;;;36.00;18.33;;;;;;;4.60;100.00;100597.28;5031823;28;20052;-67
2020/12/10 09:58:22;;;;;;;33.05;18.10;;;;;;;5.58;100.00;100601.00;5012043;28;20120;-67
2020/12/10 10:01:11;;;;;;;33.17;17.10;;;;;;;4.61;100.00;100591.22;5011797;28;20036;-67
2020/12/10 10:03:56;;;;;;;28.88;17.08;;;;;;;5.51;100.00;100586.28;4998380;28;20072;-67
2020/12/10 10:06:42;;;;;;;33.20;18.23;;;;;;;5.34;100.00;100591.44;5011729;28;20394;-68
2020/12/10 10:09:28;;;;;;;28.95;15.88;;;;;;;4.80;100.00;100582.66;5012009;28;20138;-67
2020/12/10 10:12:13;;;;;;;28.98;16.27;;;;;;;5.63;100.00;100581.09;5011881;28;20029;-67
2020/12/10 10:14:59;;;;;;;27.95;17.45;;;;;;;5.76;100.00;100595.81;5000364;28;20546;-67
2020/12/10 10:17:44;;;;;;;27.27;16.83;;;;;;;6.19;100.00;100602.72;5029532;28;20044;-68
2020/12/10 10:20:30;;;;;;;28.27;16.92;;;;;;;6.18;100.00;100582.78;5028899;28;20120;-68
2020/12/10 10:23:16;;;;;;;28.23;16.52;;;;;;;5.97;100.00;100572.44;5015416;28;20048;-67
2020/12/10 10:26:01;;;;;;;26.45;16.02;;;;;;;5.00;100.00;100568.91;5015517;28;20045;-67
2020/12/10 10:28:49;;;;;;;27.75;17.45;;;;;;;4.95;100.00;100580.97;5015690;28;20034;-67
2020/12/10 10:31:35;;;;;;;30.65;18.05;;;;;;;5.26;100.00;100568.91;5014960;28;20443;-67
2020/12/10 10:34:21;;;;;;;28.52;17.42;;;;;;;5.46;100.00;100568.97;5015801;28;20136;-68
2020/12/10 10:37:06;;;;;;;31.95;18.95;;;;;;;4.53;100.00;100573.06;5015156;28;20037;-67
2020/12/10 10:39:52;;;;;;;27.27;17.15;;;;;;;5.48;100.00;100562.91;5015331;28;20042;-67
2020/12/10 10:42:37;;;;;;;31.55;18.95;;;;;;;5.26;100.00;100561.13;5028822;28;20030;-67
2020/12/10 10:45:23;;;;;;;27.77;16.85;;;;;;;5.74;100.00;100553.34;5028790;28;20379;-67
2020/12/10 10:48:08;;;;;;;25.35;15.52;;;;;;;5.33;100.00;100547.28;5028900;28;20042;-67
2020/12/10 10:50:53;;;;;;;23.70;16.27;;;;;;;5.85;100.00;100546.44;5014713;28;20127;-67
2020/12/10 10:53:40;;;;;;;23.80;14.85;;;;;;;5.88;100.00;100545.56;5028912;28;20109;-67
2020/12/10 10:56:26;;;;;;;23.08;14.98;;;;;;;6.19;100.00;100549.84;5019719;28;20029;-67
2020/12/10 10:59:11;;;;;;;21.58;14.40;;;;;;;5.87;100.00;100536.91;5034834;28;20098;-69
2020/12/10 11:01:56;;;;;;;24.17;15.93;;;;;;;5.88;100.00;100543.84;5034320;28;20034;-67
2020/12/10 11:04:42;;;;;;;26.88;15.80;;;;;;;5.44;100.00;100533.44;5034790;28;20064;-66
2020/12/10 11:07:27;;;;;;;25.10;16.63;;;;;;;5.72;100.00;100539.50;5034246;28;20037;-68
2020/12/10 11:10:13;;;;;;;32.95;19.10;;;;;;;5.07;100.00;100536.03;5034327;28;20029;-68
2020/12/10 11:13:00;;;;;;;27.98;17.48;;;;;;;5.64;100.00;100542.97;5020538;28;20040;-67
2020/12/10 11:15:45;;;;;;;33.35;19.05;;;;;;;5.56;100.00;100532.59;5034230;28;20052;-67
2020/12/10 11:18:31;;;;;;;32.17;19.42;;;;;;;5.38;100.00;100534.31;5034448;28;20072;-66
2020/12/10 11:21:16;;;;;;;34.33;20.38;;;;;;;5.46;100.00;100546.44;5033865;28;20048;-67
2020/12/10 11:24:02;;;;;;;29.20;17.20;;;;;;;5.70;100.00;100543.81;5033914;28;20046;-67
2020/12/10 11:26:52;;;;;;;34.72;19.30;;;;;;;5.58;100.00;100541.22;5033902;28;20049;-67
2020/12/10 11:29:37;;;;;;;33.45;18.05;;;;;;;5.76;100.00;100542.97;5033938;28;20026;-67
2020/12/10 11:32:23;;;;;;;32.47;19.23;;;;;;;5.86;100.00;100537.78;5019620;28;20474;-67
2020/12/10 11:35:08;;;;;;;34.58;20.55;;;;;;;5.65;100.00;100534.28;5034127;28;20037;-67
2020/12/10 11:37:55;;;;;;;32.35;19.27;;;;;;;5.68;100.00;100534.31;5033883;28;20065;-68
2020/12/10 11:40:41;;;;;;;30.48;18.60;;;;;;;5.37;100.00;100530.84;5033946;28;20029;-67
2020/12/10 11:43:26;;;;;;;33.08;19.00;;;;;;;5.35;100.00;100530.00;5047785;28;20037;-67
2020/12/10 11:46:13;;;;;;;31.80;18.33;;;;;;;5.57;100.00;100525.63;5033912;28;20038;-66
2020/12/10 11:48:58;;;;;;;33.95;19.25;;;;;;;5.47;100.00;100532.59;5034014;28;20034;-67
2020/12/10 11:51:44;;;;;;;35.25;21.33;;;;;;;5.52;100.00;100519.59;5033027;28;20037;-67
2020/12/10 11:54:29;;;;;;;32.55;19.23;;;;;;;5.61;100.00;100528.25;5033479;28;20036;-67
2020/12/10 11:57:15;;;;;;;32.95;19.40;;;;;;;5.69;100.00;100517.84;5027848;28;20044;-66
2020/12/10 12:00:00;;;;;;;29.30;17.17;;;;;;;5.28;100.00;100523.06;5033470;28;20037;-67
2020/12/10 12:02:46;;;;;;;32.78;19.45;;;;;;;5.01;100.00;100523.00;5033639;28;20037;-65
2020/12/10 12:05:31;;;;;;;28.65;18.15;;;;;;;5.65;100.00;100519.59;5033442;28;20029;-64
2020/12/10 12:08:17;;;;;;;31.13;18.90;;;;;;;5.64;100.00;100516.97;5033269;28;20025;-67
2020/12/10 12:11:02;;;;;;;31.40;18.25;;;;;;;5.48;100.00;100511.78;5033219;28;20091;-67
2020/12/10 12:13:48;;;;;;;36.10;20.92;;;;;;;5.64;100.00;100504.88;5047398;28;20064;-67
2020/12/10 12:16:33;;;;;;;32.40;20.25;;;;;;;5.09;100.00;100509.19;5033529;28;20033;-67
2020/12/10 12:19:19;;;;;;;31.73;19.65;;;;;;;4.90;100.00;100504.84;5033788;28;20030;-67
2020/12/10 12:22:04;;;;;;;37.08;21.70;;;;;;;5.36;100.00;100506.59;5033147;28;20040;-67
2020/12/10 12:24:50;;;;;;;32.75;19.42;;;;;;;5.40;100.00;100513.53;5036377;28;20034;-65
2020/12/10 12:27:35;;;;;;;33.60;20.05;;;;;;;5.04;100.00;100513.53;5042653;28;20056;-67
2020/12/10 12:30:21;;;;;;;34.47;20.17;;;;;;;4.62;100.00;100515.13;5033107;28;20166;-67
2020/12/10 12:33:07;;;;;;;36.92;20.40;;;;;;;4.99;100.00;100510.03;5034309;28;20045;-67
2020/12/10 12:35:52;;;;;;;33.42;19.85;;;;;;;5.06;100.00;100516.09;5022640;28;20087;-67
2020/12/10 12:38:37;;;;;;;35.22;20.48;;;;;;;4.77;100.00;100500.47;5018934;28;20039;-67
2020/12/10 12:41:30;;;;;;;32.63;18.25;;;;;;;4.93;100.00;100499.66;5032546;28;20025;-68